Port Imperial Manhattan — WBP3384 — position and weather

sailwx.info

Track history (hours):
 
Tides and Currents Weather Stations Pressure Air Temp Water Temp Dewpoint Dewpoint Depression Visibility Wind Speed Wind Dir Waves Ship Positions

Port Imperial Manhattan

Owner: PORT IMPERIAL FERRY CORP, WEEHAWKEN, NJ. More information available from US FCC via Universal Licensing System and Coast Guard Vessel Documentation Center.

Last reported at 2017-Dec-08 23:38 UTC. Time now 2017-Dec-11 04:12 UTC.
Position N 40°46' W 074°01'.

Length 30 m.

Type: Passenger vessel. MMSI: 366990540.

Date/timePositionNaut miles runAvg speedWind from/ knotsBaromVisibWave heightAir tempDewpointWater temp
2017-Dec-08 23:38N 40°46' W 074°01'1 5.8
2017-Dec-08 23:30N 40°46' W 074°01'4 8.0
2017-Dec-08 23:00N 40°42' W 074°01'0 1.0
2017-Dec-08 22:31N 40°42' W 074°01'0 1.0
2017-Dec-08 22:00N 40°42' W 074°01'0 0.0
2017-Dec-08 21:31N 40°42' W 074°01'0 0.1
2017-Dec-08 21:00N 40°42' W 074°01'0 0.0
2017-Dec-08 20:30N 40°42' W 074°01'0 0.9
2017-Dec-08 20:00N 40°42' W 074°01'0 1.0
2017-Dec-08 19:31N 40°42' W 074°01'0 0.9
2017-Dec-08 19:01N 40°42' W 074°01'0 0.9
2017-Dec-08 18:31N 40°42' W 074°01'0 0.0
2017-Dec-08 17:30N 40°42' W 074°01'0 0.7
2017-Dec-08 17:00N 40°42' W 074°01'0 0.7
2017-Dec-08 16:30N 40°42' W 074°01'0 0.8
2017-Dec-08 16:00N 40°42' W 074°01'0 0.9
2017-Dec-08 15:31N 40°42' W 074°01'0 0.9
2017-Dec-08 15:00N 40°42' W 074°01'0 0.0
2017-Dec-08 14:30N 40°42' W 074°01'0 0.0
2017-Dec-08 14:00N 40°42' W 074°01'0 0.0
2017-Dec-08 13:30N 40°42' W 074°01'0 0.0
2017-Dec-08 13:01N 40°42' W 074°01'0 0.0
2017-Dec-08 12:30N 40°42' W 074°01'0 0.0
2017-Dec-08 11:50N 40°42' W 074°01'0 1.0
2017-Dec-08 11:30N 40°42' W 074°01'4 0.4
2017-Dec-07 23:33N 40°46' W 074°01'0 5.7
2017-Dec-07 23:30N 40°46' W 074°01'4 9.0
2017-Dec-07 23:01N 40°42' W 074°01'0 0.8
2017-Dec-07 22:31N 40°42' W 074°01'0 0.9
2017-Dec-07 22:00N 40°42' W 074°01'0 0.0
2017-Dec-07 21:31N 40°42' W 074°01'0 0.1
2017-Dec-07 21:00N 40°42' W 074°01'0 0.0
2017-Dec-07 20:30N 40°42' W 074°01'0 0.9
2017-Dec-07 20:00N 40°42' W 074°01'0 1.0
2017-Dec-07 19:30N 40°42' W 074°01'0 0.9
2017-Dec-07 19:00N 40°42' W 074°01'0 0.8
2017-Dec-07 18:30N 40°42' W 074°01'0 0.5
2017-Dec-07 17:42N 40°42' W 074°01'0 1.9
2017-Dec-07 17:31N 40°42' W 074°01'0 0.8
2017-Dec-07 17:00N 40°42' W 074°01'0 0.9
2017-Dec-07 16:30N 40°42' W 074°01'0 0.9
2017-Dec-07 16:00N 40°42' W 074°01'0 0.8
2017-Dec-07 15:30N 40°42' W 074°01'0 0.8
2017-Dec-07 15:00N 40°42' W 074°01'0 0.1
2017-Dec-07 14:19N 40°42' W 074°01'0 0.0
2017-Dec-07 13:57N 40°42' W 074°01'0 0.0
2017-Dec-07 13:30N 40°42' W 074°01'0 0.1
2017-Dec-07 13:00N 40°42' W 074°01'0 0.0
2017-Dec-07 12:21N 40°42' W 074°01'0 0.0
2017-Dec-07 11:38N 40°42' W 074°01'0 2.6
2017-Dec-07 11:30N 40°42' W 074°01'4 8.9
2017-Dec-07 11:00N 40°46' W 074°01'0 0.0
2017-Dec-06 23:44N 40°46' W 074°01'2 7.0
2017-Dec-06 23:30N 40°45' W 074°01'3 6.2
2017-Dec-06 23:01N 40°42' W 074°01'0 0.9
2017-Dec-06 22:31N 40°42' W 074°01'0 0.9
2017-Dec-06 22:01N 40°42' W 074°01'0 0.0
2017-Dec-06 21:31N 40°42' W 074°01'0 0.0
2017-Dec-06 21:00N 40°42' W 074°01'  
2017-Dec-01 23:25N 40°46' W 074°01'410.3
2017-Dec-01 23:00N 40°42' W 074°01'0 0.9
2017-Dec-01 22:29N 40°42' W 074°01'0 1.0
2017-Dec-01 22:00N 40°42' W 074°01'0 0.0
2017-Dec-01 21:31N 40°42' W 074°01'0 0.1
2017-Dec-01 21:01N 40°42' W 074°01'0 0.1
2017-Dec-01 20:30N 40°42' W 074°01'0 0.8
2017-Dec-01 20:01N 40°42' W 074°01'0 0.9
2017-Dec-01 19:30N 40°42' W 074°01'0 0.8
2017-Dec-01 18:53N 40°42' W 074°01'0 1.3
2017-Dec-01 18:30N 40°42' W 074°01'0 0.9
2017-Dec-01 17:59N 40°42' W 074°01'0 0.9
2017-Dec-01 17:31N 40°42' W 074°01'0 0.9
2017-Dec-01 17:00N 40°42' W 074°01'0 0.9
2017-Dec-01 16:30N 40°42' W 074°01'0 0.8
2017-Dec-01 16:01N 40°42' W 074°01'0 0.8
2017-Dec-01 15:31N 40°42' W 074°01'0 0.8
2017-Dec-01 15:01N 40°42' W 074°01'0 0.0
2017-Dec-01 14:30N 40°42' W 074°01'0 0.1
2017-Dec-01 14:00N 40°42' W 074°01'0 0.1
2017-Dec-01 13:30N 40°42' W 074°01'0 0.0
2017-Dec-01 13:00N 40°42' W 074°01'0 0.0
2017-Dec-01 12:21N 40°42' W 074°01'0 0.0
2017-Dec-01 11:58N 40°42' W 074°01'0 1.0
2017-Dec-01 11:30N 40°42' W 074°01'5 0.8
2017-Dec-01 05:15N 40°47' W 074°01'0 0.0
2017-Dec-01 05:00N 40°47' W 074°01'1 1.9
2017-Dec-01 04:30N 40°46' W 074°00'1 1.9
2017-Dec-01 04:00N 40°47' W 074°01'1 2.0
2017-Dec-01 03:30N 40°46' W 074°00'1 1.9
2017-Dec-01 03:00N 40°47' W 074°01'1 1.9
2017-Dec-01 02:30N 40°46' W 074°00'1 1.9
2017-Dec-01 02:00N 40°47' W 074°01'1 1.9
2017-Dec-01 01:30N 40°46' W 074°00'1 2.0
2017-Dec-01 01:00N 40°47' W 074°01'1 1.9
2017-Dec-01 00:30N 40°46' W 074°00'1 1.9
2017-Dec-01 00:00N 40°47' W 074°01'3 5.9
2017-Nov-30 23:30N 40°44' W 074°01'2 3.5
2017-Nov-30 23:00N 40°42' W 074°01'0 0.0
2017-Nov-30 22:27N 40°42' W 074°01'0 1.1
2017-Nov-30 22:00N 40°42' W 074°01'0 0.1
2017-Nov-30 21:30N 40°42' W 074°01'0 0.0
2017-Nov-30 21:00N 40°42' W 074°01'0 0.1
2017-Nov-30 20:30N 40°42' W 074°01'0 0.8
2017-Nov-30 20:00N 40°42' W 074°01'0 0.9
2017-Nov-30 19:30N 40°42' W 074°01'0 0.9
2017-Nov-30 19:00N 40°42' W 074°01'0 1.0
2017-Nov-30 18:30N 40°42' W 074°01'0 0.9
2017-Nov-30 18:00N 40°42' W 074°01'0 0.9
2017-Nov-30 17:30N 40°42' W 074°01'0 0.8
2017-Nov-30 17:00N 40°42' W 074°01'0 0.8
2017-Nov-30 16:30N 40°42' W 074°01'0 0.8
2017-Nov-30 16:00N 40°42' W 074°01'0 0.8
2017-Nov-30 15:30N 40°42' W 074°01'0 0.7
2017-Nov-30 14:50N 40°42' W 074°01'0 0.0
2017-Nov-30 14:30N 40°42' W 074°01'0 0.0
2017-Nov-30 14:00N 40°42' W 074°01'0 0.0
2017-Nov-30 13:30N 40°42' W 074°01'0 0.0
2017-Nov-30 13:00N 40°42' W 074°01'0 0.1
2017-Nov-30 12:19N 40°42' W 074°01'0 0.2
2017-Nov-30 12:00N 40°42' W 074°01'3 5.1
2017-Nov-30 11:30N 40°45' W 074°01'2 0.1
2017-Nov-29 23:31N 40°46' W 074°01'0 1.1
2017-Nov-29 23:30N 40°46' W 074°01'5 9.3
2017-Nov-29 23:00N 40°42' W 074°01'0 0.5
2017-Nov-29 22:04N 40°42' W 074°01'0 7.4
2017-Nov-29 22:00N 40°42' W 074°01'0 0.1
2017-Nov-29 21:30N 40°42' W 074°01'0 0.0
2017-Nov-29 21:00N 40°42' W 074°01'0 0.0
2017-Nov-29 20:30N 40°42' W 074°01'0 0.9
2017-Nov-29 20:00N 40°42' W 074°01'0 0.9
2017-Nov-29 19:30N 40°42' W 074°01'0 0.9
2017-Nov-29 19:00N 40°42' W 074°01'0 0.9
2017-Nov-29 18:30N 40°42' W 074°01'0 0.9
2017-Nov-29 18:00N 40°42' W 074°01'0 0.8
2017-Nov-29 17:30N 40°42' W 074°01'0 0.9
2017-Nov-29 17:00N 40°42' W 074°01'0 1.0
2017-Nov-29 16:30N 40°42' W 074°01'0 0.8
2017-Nov-29 15:56N 40°42' W 074°01'0 1.1
2017-Nov-29 15:30N 40°42' W 074°01'0 0.7
2017-Nov-29 14:51N 40°42' W 074°01'0 0.2
2017-Nov-29 14:30N 40°42' W 074°01'0 0.0
2017-Nov-29 14:00N 40°42' W 074°01'0 0.0
2017-Nov-29 13:29N 40°42' W 074°01'0 0.1
2017-Nov-29 12:49N 40°42' W 074°01'0 0.1
2017-Nov-29 12:20N 40°42' W 074°01'0 0.0
2017-Nov-29 12:00N 40°42' W 074°01'2 3.1
2017-Nov-29 11:30N 40°44' W 074°01'3 5.6
2017-Nov-29 11:00N 40°46' W 074°01'  
Track history (hours):
 
Tides and Currents Weather Stations Pressure Air Temp Water Temp Dewpoint Dewpoint Depression Visibility Wind Speed Wind Dir Waves Ship Positions

Port Imperial Manhattan

Owner: PORT IMPERIAL FERRY CORP, WEEHAWKEN, NJ. More information available from US FCC via Universal Licensing System and Coast Guard Vessel Documentation Center.

Last reported at 2017-Dec-08 23:38 UTC. Time now 2017-Dec-11 04:12 UTC.
Position N 40°46' W 074°01'.

Length 30 m.

Type: Passenger vessel. MMSI: 366990540.

Date/timePositionNaut miles runAvg speedWind from/ knotsBaromVisibWave heightAir tempDewpointWater temp
2017-Dec-08 23:38N 40°46' W 074°01'1 5.8
2017-Dec-08 23:30N 40°46' W 074°01'4 8.0
2017-Dec-08 23:00N 40°42' W 074°01'0 1.0
2017-Dec-08 22:31N 40°42' W 074°01'0 1.0
2017-Dec-08 22:00N 40°42' W 074°01'0 0.0
2017-Dec-08 21:31N 40°42' W 074°01'0 0.1
2017-Dec-08 21:00N 40°42' W 074°01'0 0.0
2017-Dec-08 20:30N 40°42' W 074°01'0 0.9
2017-Dec-08 20:00N 40°42' W 074°01'0 1.0
2017-Dec-08 19:31N 40°42' W 074°01'0 0.9
2017-Dec-08 19:01N 40°42' W 074°01'0 0.9
2017-Dec-08 18:31N 40°42' W 074°01'0 0.0
2017-Dec-08 17:30N 40°42' W 074°01'0 0.7
2017-Dec-08 17:00N 40°42' W 074°01'0 0.7
2017-Dec-08 16:30N 40°42' W 074°01'0 0.8
2017-Dec-08 16:00N 40°42' W 074°01'0 0.9
2017-Dec-08 15:31N 40°42' W 074°01'0 0.9
2017-Dec-08 15:00N 40°42' W 074°01'0 0.0
2017-Dec-08 14:30N 40°42' W 074°01'0 0.0
2017-Dec-08 14:00N 40°42' W 074°01'0 0.0
2017-Dec-08 13:30N 40°42' W 074°01'0 0.0
2017-Dec-08 13:01N 40°42' W 074°01'0 0.0
2017-Dec-08 12:30N 40°42' W 074°01'0 0.0
2017-Dec-08 11:50N 40°42' W 074°01'0 1.0
2017-Dec-08 11:30N 40°42' W 074°01'4 0.4
2017-Dec-07 23:33N 40°46' W 074°01'0 5.7
2017-Dec-07 23:30N 40°46' W 074°01'4 9.0
2017-Dec-07 23:01N 40°42' W 074°01'0 0.8
2017-Dec-07 22:31N 40°42' W 074°01'0 0.9
2017-Dec-07 22:00N 40°42' W 074°01'0 0.0
2017-Dec-07 21:31N 40°42' W 074°01'0 0.1
2017-Dec-07 21:00N 40°42' W 074°01'0 0.0
2017-Dec-07 20:30N 40°42' W 074°01'0 0.9
2017-Dec-07 20:00N 40°42' W 074°01'0 1.0
2017-Dec-07 19:30N 40°42' W 074°01'0 0.9
2017-Dec-07 19:00N 40°42' W 074°01'0 0.8
2017-Dec-07 18:30N 40°42' W 074°01'0 0.5
2017-Dec-07 17:42N 40°42' W 074°01'0 1.9
2017-Dec-07 17:31N 40°42' W 074°01'0 0.8
2017-Dec-07 17:00N 40°42' W 074°01'0 0.9
2017-Dec-07 16:30N 40°42' W 074°01'0 0.9
2017-Dec-07 16:00N 40°42' W 074°01'0 0.8
2017-Dec-07 15:30N 40°42' W 074°01'0 0.8
2017-Dec-07 15:00N 40°42' W 074°01'0 0.1
2017-Dec-07 14:19N 40°42' W 074°01'0 0.0
2017-Dec-07 13:57N 40°42' W 074°01'0 0.0
2017-Dec-07 13:30N 40°42' W 074°01'0 0.1
2017-Dec-07 13:00N 40°42' W 074°01'0 0.0
2017-Dec-07 12:21N 40°42' W 074°01'0 0.0
2017-Dec-07 11:38N 40°42' W 074°01'0 2.6
2017-Dec-07 11:30N 40°42' W 074°01'4 8.9
2017-Dec-07 11:00N 40°46' W 074°01'0 0.0
2017-Dec-06 23:44N 40°46' W 074°01'2 7.0
2017-Dec-06 23:30N 40°45' W 074°01'3 6.2
2017-Dec-06 23:01N 40°42' W 074°01'0 0.9
2017-Dec-06 22:31N 40°42' W 074°01'0 0.9
2017-Dec-06 22:01N 40°42' W 074°01'0 0.0
2017-Dec-06 21:31N 40°42' W 074°01'0 0.0
2017-Dec-06 21:00N 40°42' W 074°01'  
2017-Dec-01 23:25N 40°46' W 074°01'410.3
2017-Dec-01 23:00N 40°42' W 074°01'0 0.9
2017-Dec-01 22:29N 40°42' W 074°01'0 1.0
2017-Dec-01 22:00N 40°42' W 074°01'0 0.0
2017-Dec-01 21:31N 40°42' W 074°01'0 0.1
2017-Dec-01 21:01N 40°42' W 074°01'0 0.1
2017-Dec-01 20:30N 40°42' W 074°01'0 0.8
2017-Dec-01 20:01N 40°42' W 074°01'0 0.9
2017-Dec-01 19:30N 40°42' W 074°01'0 0.8
2017-Dec-01 18:53N 40°42' W 074°01'0 1.3
2017-Dec-01 18:30N 40°42' W 074°01'0 0.9
2017-Dec-01 17:59N 40°42' W 074°01'0 0.9
2017-Dec-01 17:31N 40°42' W 074°01'0 0.9
2017-Dec-01 17:00N 40°42' W 074°01'0 0.9
2017-Dec-01 16:30N 40°42' W 074°01'0 0.8
2017-Dec-01 16:01N 40°42' W 074°01'0 0.8
2017-Dec-01 15:31N 40°42' W 074°01'0 0.8
2017-Dec-01 15:01N 40°42' W 074°01'0 0.0
2017-Dec-01 14:30N 40°42' W 074°01'0 0.1
2017-Dec-01 14:00N 40°42' W 074°01'0 0.1
2017-Dec-01 13:30N 40°42' W 074°01'0 0.0
2017-Dec-01 13:00N 40°42' W 074°01'0 0.0
2017-Dec-01 12:21N 40°42' W 074°01'0 0.0
2017-Dec-01 11:58N 40°42' W 074°01'0 1.0
2017-Dec-01 11:30N 40°42' W 074°01'5 0.8
2017-Dec-01 05:15N 40°47' W 074°01'0 0.0
2017-Dec-01 05:00N 40°47' W 074°01'1 1.9
2017-Dec-01 04:30N 40°46' W 074°00'1 1.9
2017-Dec-01 04:00N 40°47' W 074°01'1 2.0
2017-Dec-01 03:30N 40°46' W 074°00'1 1.9
2017-Dec-01 03:00N 40°47' W 074°01'1 1.9
2017-Dec-01 02:30N 40°46' W 074°00'1 1.9
2017-Dec-01 02:00N 40°47' W 074°01'1 1.9
2017-Dec-01 01:30N 40°46' W 074°00'1 2.0
2017-Dec-01 01:00N 40°47' W 074°01'1 1.9
2017-Dec-01 00:30N 40°46' W 074°00'1 1.9
2017-Dec-01 00:00N 40°47' W 074°01'3 5.9
2017-Nov-30 23:30N 40°44' W 074°01'2 3.5
2017-Nov-30 23:00N 40°42' W 074°01'0 0.0
2017-Nov-30 22:27N 40°42' W 074°01'0 1.1
2017-Nov-30 22:00N 40°42' W 074°01'0 0.1
2017-Nov-30 21:30N 40°42' W 074°01'0 0.0
2017-Nov-30 21:00N 40°42' W 074°01'0 0.1
2017-Nov-30 20:30N 40°42' W 074°01'0 0.8
2017-Nov-30 20:00N 40°42' W 074°01'0 0.9
2017-Nov-30 19:30N 40°42' W 074°01'0 0.9
2017-Nov-30 19:00N 40°42' W 074°01'0 1.0
2017-Nov-30 18:30N 40°42' W 074°01'0 0.9
2017-Nov-30 18:00N 40°42' W 074°01'0 0.9
2017-Nov-30 17:30N 40°42' W 074°01'0 0.8
2017-Nov-30 17:00N 40°42' W 074°01'0 0.8
2017-Nov-30 16:30N 40°42' W 074°01'0 0.8
2017-Nov-30 16:00N 40°42' W 074°01'0 0.8
2017-Nov-30 15:30N 40°42' W 074°01'0 0.7
2017-Nov-30 14:50N 40°42' W 074°01'0 0.0
2017-Nov-30 14:30N 40°42' W 074°01'0 0.0
2017-Nov-30 14:00N 40°42' W 074°01'0 0.0
2017-Nov-30 13:30N 40°42' W 074°01'0 0.0
2017-Nov-30 13:00N 40°42' W 074°01'0 0.1
2017-Nov-30 12:19N 40°42' W 074°01'0 0.2
2017-Nov-30 12:00N 40°42' W 074°01'3 5.1
2017-Nov-30 11:30N 40°45' W 074°01'2 0.1
2017-Nov-29 23:31N 40°46' W 074°01'0 1.1
2017-Nov-29 23:30N 40°46' W 074°01'5 9.3
2017-Nov-29 23:00N 40°42' W 074°01'0 0.5
2017-Nov-29 22:04N 40°42' W 074°01'0 7.4
2017-Nov-29 22:00N 40°42' W 074°01'0 0.1
2017-Nov-29 21:30N 40°42' W 074°01'0 0.0
2017-Nov-29 21:00N 40°42' W 074°01'0 0.0
2017-Nov-29 20:30N 40°42' W 074°01'0 0.9
2017-Nov-29 20:00N 40°42' W 074°01'0 0.9
2017-Nov-29 19:30N 40°42' W 074°01'0 0.9
2017-Nov-29 19:00N 40°42' W 074°01'0 0.9
2017-Nov-29 18:30N 40°42' W 074°01'0 0.9
2017-Nov-29 18:00N 40°42' W 074°01'0 0.8
2017-Nov-29 17:30N 40°42' W 074°01'0 0.9
2017-Nov-29 17:00N 40°42' W 074°01'0 1.0
2017-Nov-29 16:30N 40°42' W 074°01'0 0.8
2017-Nov-29 15:56N 40°42' W 074°01'0 1.1
2017-Nov-29 15:30N 40°42' W 074°01'0 0.7
2017-Nov-29 14:51N 40°42' W 074°01'0 0.2
2017-Nov-29 14:30N 40°42' W 074°01'0 0.0
2017-Nov-29 14:00N 40°42' W 074°01'0 0.0
2017-Nov-29 13:29N 40°42' W 074°01'0 0.1
2017-Nov-29 12:49N 40°42' W 074°01'0 0.1
2017-Nov-29 12:20N 40°42' W 074°01'0 0.0
2017-Nov-29 12:00N 40°42' W 074°01'2 3.1
2017-Nov-29 11:30N 40°44' W 074°01'3 5.6
2017-Nov-29 11:00N 40°46' W 074°01'  

Dump ship's entire track history